Time;durP1;ratioP1;P1;durP2;ratioP2;P2;SDS_P1;SDS_P2;PMS_P1;PMS_P2;Temp;Humidity;BMP_temperature;BMP_pressure;BME280_temperature;BME280_humidity;BME280_pressure;Samples;Min_cycle;Max_cycle;Signal;HPM_P1;HPM_P2
2024/01/13 00:00:57;;;;;;;15.20;10.40;;;;;;;1.78;100.00;100800.10;180360;1261;45421;-62
2024/01/13 00:05:21;;;;;;;13.80;9.90;;;;;;;1.78;100.00;100791.17;180353;1259;44498;-62
2024/01/13 00:09:24;;;;;;;17.90;9.50;;;;;;;1.82;100.00;100791.72;180368;1259;45881;-62
2024/01/13 00:13:30;;;;;;;10.10;8.10;;;;;;;1.79;100.00;100790.61;180218;1260;58043;-62
2024/01/13 00:17:33;;;;;;;12.10;8.90;;;;;;;1.80;100.00;100797.60;180352;1259;45069;-62
2024/01/13 00:21:46;;;;;;;14.80;9.20;;;;;;;1.73;100.00;100787.86;180261;1261;43636;-62
2024/01/13 00:25:49;;;;;;;23.30;10.80;;;;;;;1.73;100.00;100784.90;180295;1260;44912;-62
2024/01/13 00:29:53;;;;;;;16.10;8.50;;;;;;;1.67;100.00;100781.45;180277;1261;45849;-62
2024/01/13 00:33:56;;;;;;;21.80;8.50;;;;;;;1.60;100.00;100772.41;180318;1259;58581;-62
2024/01/13 00:38:00;;;;;;;17.20;9.60;;;;;;;1.48;100.00;100773.02;179897;1261;46013;-62
2024/01/13 00:42:04;;;;;;;19.60;11.40;;;;;;;1.45;100.00;100767.73;179959;1260;46015;-62
2024/01/13 00:46:08;;;;;;;17.10;9.00;;;;;;;1.47;100.00;100766.08;180256;1260;43991;-62
2024/01/13 00:50:11;;;;;;;13.00;9.30;;;;;;;1.43;100.00;100762.03;180162;1259;43538;-62
2024/01/13 00:54:15;;;;;;;16.60;10.10;;;;;;;1.42;100.00;100750.52;180050;1259;58434;-62
2024/01/13 00:58:19;;;;;;;18.90;11.50;;;;;;;1.42;100.00;100756.11;180139;1260;43759;-63
2024/01/13 01:03:05;;;;;;;12.90;8.60;;;;;;;1.43;100.00;100757.64;180383;1261;43652;-62
2024/01/13 01:07:17;;;;;;;16.10;9.80;;;;;;;1.43;100.00;100760.79;180085;1261;43596;-62
2024/01/13 01:11:21;;;;;;;19.00;11.70;;;;;;;1.42;100.00;100755.96;180311;1261;43801;-62
2024/01/13 01:15:37;;;;;;;18.60;10.90;;;;;;;1.36;100.00;100761.05;180354;1260;58476;-62
2024/01/13 01:19:40;;;;;;;18.20;9.50;;;;;;;1.39;100.00;100755.54;180252;1260;43984;-62
2024/01/13 01:23:43;;;;;;;30.60;10.60;;;;;;;1.40;100.00;100746.92;180167;1260;45214;-62
2024/01/13 01:28:41;;;;;;;18.00;8.70;;;;;;;1.47;100.00;100745.09;180046;1259;45029;-62
2024/01/13 01:32:45;;;;;;;16.70;9.10;;;;;;;1.43;100.00;100733.55;180234;1261;45926;-61
2024/01/13 01:36:49;;;;;;;16.80;10.20;;;;;;;1.45;100.00;100730.15;180207;1260;58097;-62
2024/01/13 01:40:55;;;;;;;11.70;7.30;;;;;;;1.42;100.00;100725.36;180339;1261;46037;-62
2024/01/13 01:45:03;;;;;;;17.60;9.10;;;;;;;1.36;100.00;100718.42;180228;1259;43523;-61
2024/01/13 01:49:06;;;;;;;17.20;11.10;;;;;;;1.36;100.00;100722.42;180077;1260;44852;-62
2024/01/13 01:53:14;;;;;;;19.40;10.40;;;;;;;1.38;100.00;100716.58;180259;1259;44774;-62
2024/01/13 01:57:21;;;;;;;12.90;8.70;;;;;;;1.36;100.00;100702.86;180219;1263;58900;-62
2024/01/13 02:01:34;;;;;;;17.80;9.50;;;;;;;1.41;100.00;100695.88;180221;1260;45365;-62
2024/01/13 02:05:40;;;;;;;15.80;9.70;;;;;;;1.41;100.00;100696.93;180245;1260;43690;-62
2024/01/13 02:09:47;;;;;;;13.50;7.60;;;;;;;1.41;100.00;100693.93;179988;1263;46101;-62
2024/01/13 02:13:50;;;;;;;13.80;8.90;;;;;;;1.47;100.00;100689.35;179808;1261;45879;-62
2024/01/13 02:17:54;;;;;;;20.20;9.00;;;;;;;1.51;100.00;100686.95;180145;1259;59997;-62
2024/01/13 02:21:59;;;;;;;19.80;11.80;;;;;;;1.55;100.00;100679.60;180190;1259;43666;-62
2024/01/13 02:26:05;;;;;;;13.50;9.00;;;;;;;1.56;100.00;100679.05;180221;1259;44851;-62
2024/01/13 02:30:09;;;;;;;15.10;10.90;;;;;;;1.51;100.00;100675.23;180276;1260;43927;-62
2024/01/13 02:34:12;;;;;;;16.10;9.20;;;;;;;1.54;100.00;100677.38;180153;1260;44691;-62
2024/01/13 02:38:16;;;;;;;13.90;9.00;;;;;;;1.54;100.00;100674.05;180019;1263;58762;-63
2024/01/13 02:42:32;;;;;;;17.30;9.40;;;;;;;1.56;100.00;100667.14;180167;1261;43922;-63
2024/01/13 02:46:35;;;;;;;17.80;11.50;;;;;;;1.56;100.00;100670.66;180108;1260;45995;-63
2024/01/13 02:50:38;;;;;;;15.30;9.10;;;;;;;1.55;100.00;100665.30;180093;1260;45136;-62
2024/01/13 02:54:42;;;;;;;12.40;7.90;;;;;;;1.59;100.00;100669.70;180088;1261;45904;-63
2024/01/13 02:59:11;;;;;;;15.80;9.10;;;;;;;1.55;100.00;100672.43;180013;1260;59060;-63
2024/01/13 03:03:14;;;;;;;16.80;8.60;;;;;;;1.55;100.00;100675.05;180142;1260;44784;-63
2024/01/13 03:07:18;;;;;;;13.60;7.60;;;;;;;1.57;100.00;100673.23;180172;1260;44538;-63
2024/01/13 03:11:22;;;;;;;13.20;7.80;;;;;;;1.60;100.00;100679.76;180172;1260;44034;-62
2024/01/13 03:15:30;;;;;;;23.40;9.70;;;;;;;1.56;100.00;100667.54;180052;1263;46551;-63
2024/01/13 03:19:34;;;;;;;12.90;8.20;;;;;;;1.51;100.00;100671.38;180186;1260;58393;-63
2024/01/13 03:23:38;;;;;;;18.60;9.70;;;;;;;1.58;100.00;100658.35;180197;1260;46010;-62
2024/01/13 03:27:42;;;;;;;16.00;11.30;;;;;;;1.57;100.00;100652.95;180092;1260;45943;-63
2024/01/13 03:31:53;;;;;;;15.10;8.80;;;;;;;1.56;100.00;100633.60;180240;1260;43809;-63
2024/01/13 03:35:56;;;;;;;14.20;9.30;;;;;;;1.51;100.00;100638.00;180102;1260;45978;-63
2024/01/13 03:40:00;;;;;;;15.20;8.90;;;;;;;1.54;100.00;100629.13;180084;1259;58269;-63
2024/01/13 03:44:05;;;;;;;14.30;7.50;;;;;;;1.48;100.00;100626.20;180110;1259;45931;-63
2024/01/13 03:48:08;;;;;;;12.40;8.80;;;;;;;1.50;100.00;100624.56;180187;1260;43649;-63
2024/01/13 03:52:13;;;;;;;11.20;8.40;;;;;;;1.49;100.00;100617.60;179980;1260;46046;-63
2024/01/13 03:56:17;;;;;;;14.40;8.00;;;;;;;1.51;100.00;100608.27;180155;1259;44706;-63
2024/01/13 04:00:21;;;;;;;12.60;7.30;;;;;;;1.51;100.00;100594.65;180294;1260;58795;-64
2024/01/13 04:04:26;;;;;;;12.60;8.00;;;;;;;1.53;100.00;100597.86;180158;1259;44977;-63
2024/01/13 04:08:30;;;;;;;11.50;7.00;;;;;;;1.51;100.00;100599.51;180129;1259;43650;-63
2024/01/13 04:12:33;;;;;;;12.10;9.50;;;;;;;1.50;100.00;100587.70;180209;1260;43773;-63
2024/01/13 04:16:36;;;;;;;16.30;7.20;;;;;;;1.51;100.00;100591.31;180249;1259;43509;-63
2024/01/13 04:20:42;;;;;;;13.10;9.50;;;;;;;1.49;100.00;100598.58;180308;1259;58601;-63
2024/01/13 04:24:46;;;;;;;16.60;9.40;;;;;;;1.54;100.00;100599.23;180221;1259;43984;-63
2024/01/13 04:29:18;;;;;;;15.00;8.80;;;;;;;1.56;100.00;100594.96;180314;1259;43609;-64
2024/01/13 04:33:23;;;;;;;13.40;7.60;;;;;;;1.50;100.00;100593.09;180218;1259;45103;-63
2024/01/13 04:37:27;;;;;;;10.50;7.30;;;;;;;1.51;100.00;100583.11;180175;1259;45965;-63
2024/01/13 04:41:31;;;;;;;13.30;9.90;;;;;;;1.52;100.00;100586.88;180087;1259;58480;-63
2024/01/13 04:46:05;;;;;;;14.50;7.00;;;;;;;1.49;100.00;100590.34;180207;1259;44722;-63
2024/01/13 04:50:09;;;;;;;8.00;6.00;;;;;;;1.52;100.00;100586.21;180306;1258;45208;-63
2024/01/13 04:54:12;;;;;;;13.90;8.00;;;;;;;1.51;100.00;100588.32;180339;1259;44193;-64
2024/01/13 04:58:15;;;;;;;14.60;9.20;;;;;;;1.53;100.00;100578.80;180152;1259;43552;-63
2024/01/13 05:02:19;;;;;;;12.30;8.20;;;;;;;1.58;100.00;100575.84;180294;1259;58878;-62
2024/01/13 05:06:23;;;;;;;11.00;5.80;;;;;;;1.58;100.00;100564.33;180306;1259;43738;-62
2024/01/13 05:10:27;;;;;;;13.00;8.20;;;;;;;1.59;100.00;100559.36;180151;1259;43660;-63
2024/01/13 05:14:31;;;;;;;9.30;6.90;;;;;;;1.65;100.00;100561.93;172567;1259;10150783;-63
2024/01/13 05:18:38;;;;;;;11.20;8.10;;;;;;;1.68;100.00;100557.59;180106;1259;58047;-64
2024/01/13 05:22:41;;;;;;;10.70;6.50;;;;;;;1.73;100.00;100543.77;180225;1259;46008;-63
2024/01/13 05:26:50;;;;;;;10.20;8.40;;;;;;;1.80;100.00;100537.02;180246;1259;45907;-64
2024/01/13 05:30:53;;;;;;;10.30;7.80;;;;;;;1.89;100.00;100527.20;180116;1259;46029;-64
2024/01/13 05:34:57;;;;;;;8.70;7.20;;;;;;;2.00;100.00;100533.59;180323;1259;43879;-63
2024/01/13 05:39:00;;;;;;;10.20;8.70;;;;;;;2.05;100.00;100538.77;180153;1259;57965;-63
2024/01/13 05:43:04;;;;;;;8.60;7.10;;;;;;;2.04;100.00;100542.48;180289;1260;46494;-64
2024/01/13 05:47:09;;;;;;;9.00;7.10;;;;;;;2.03;100.00;100538.52;180283;1259;45966;-63
2024/01/13 05:51:13;;;;;;;12.50;8.90;;;;;;;2.06;100.00;100545.02;180286;1259;46046;-64
2024/01/13 05:55:31;;;;;;;10.10;6.90;;;;;;;2.08;100.00;100546.50;180289;1259;43959;-63
2024/01/13 05:59:34;;;;;;;10.10;6.20;;;;;;;2.09;100.00;100538.78;180325;1259;58460;-64
2024/01/13 06:03:38;;;;;;;10.10;6.50;;;;;;;2.11;100.00;100534.85;180247;1259;45069;-63
2024/01/13 06:07:43;;;;;;;8.40;5.10;;;;;;;2.08;100.00;100534.45;180381;1259;43559;-63
2024/01/13 06:11:46;;;;;;;5.40;4.00;;;;;;;2.13;100.00;100533.88;180158;1259;46027;-64
2024/01/13 06:15:50;;;;;;;6.50;4.30;;;;;;;2.17;100.00;100534.27;180310;1259;46078;-63
2024/01/13 06:19:53;;;;;;;7.80;6.40;;;;;;;2.25;100.00;100528.34;180260;1259;58585;-64
2024/01/13 06:24:22;;;;;;;7.30;5.00;;;;;;;2.27;100.00;100524.73;180297;1259;46051;-64
2024/01/13 06:28:25;;;;;;;7.70;5.30;;;;;;;2.33;100.00;100523.92;180404;1259;43721;-64
2024/01/13 06:32:28;;;;;;;7.50;6.70;;;;;;;2.29;100.00;100530.42;180207;1259;45916;-63
2024/01/13 06:36:32;;;;;;;10.50;6.30;;;;;;;2.33;100.00;100527.27;180306;1259;46009;-63
2024/01/13 06:40:35;;;;;;;3.90;3.50;;;;;;;2.33;100.00;100531.13;180394;1259;60276;-64
2024/01/13 06:44:40;;;;;;;8.30;6.70;;;;;;;2.23;100.00;100528.02;180282;1259;45191;-64
2024/01/13 06:48:47;;;;;;;7.10;4.30;;;;;;;2.16;100.00;100535.69;180168;1259;46011;-65
2024/01/13 06:52:51;;;;;;;5.80;5.10;;;;;;;2.07;100.00;100530.10;180376;1259;45907;-64
2024/01/13 06:56:54;;;;;;;9.40;7.00;;;;;;;2.14;100.00;100540.66;180369;1259;44602;-65
2024/01/13 07:00:58;;;;;;;9.50;7.00;;;;;;;2.13;100.00;100539.30;180262;1259;58273;-65
2024/01/13 07:05:05;;;;;;;8.00;6.00;;;;;;;2.11;100.00;100533.45;180430;1259;44808;-65
2024/01/13 07:09:09;;;;;;;10.80;7.90;;;;;;;2.11;100.00;100539.41;180383;1259;43718;-66
2024/01/13 07:13:12;;;;;;;11.70;9.90;;;;;;;2.15;100.00;100525.77;180405;1259;43780;-66
2024/01/13 07:17:16;;;;;;;9.00;6.90;;;;;;;2.20;100.00;100520.84;180451;1258;45095;-65
2024/01/13 07:21:22;;;;;;;7.20;6.00;;;;;;;2.16;100.00;100516.78;180355;1259;58457;-66
2024/01/13 07:25:30;;;;;;;11.20;8.90;;;;;;;2.18;100.00;100520.76;180369;1259;45975;-65
2024/01/13 07:29:42;;;;;;;8.90;6.30;;;;;;;2.17;100.00;100514.27;180411;1258;45993;-66
2024/01/13 07:33:58;;;;;;;9.30;6.20;;;;;;;2.17;100.00;100508.69;180290;1259;43642;-66
2024/01/13 07:38:02;;;;;;;7.80;5.20;;;;;;;2.27;100.00;100496.04;180300;1259;43612;-65
2024/01/13 07:42:05;;;;;;;7.90;6.50;;;;;;;2.31;100.00;100493.02;180135;1259;57138;-65
2024/01/13 07:46:09;;;;;;;8.50;5.20;;;;;;;2.36;100.00;100491.09;180088;1259;46077;-65
2024/01/13 07:50:39;;;;;;;10.10;9.10;;;;;;;2.44;100.00;100483.73;180167;1259;43774;-65
2024/01/13 07:54:43;;;;;;;13.20;7.10;;;;;;;2.54;100.00;100481.89;180468;1259;44960;-65
2024/01/13 07:58:46;;;;;;;8.40;6.40;;;;;;;2.58;100.00;100485.74;180287;1259;44674;-65
2024/01/13 08:02:49;;;;;;;8.60;6.00;;;;;;;2.60;100.00;100486.02;180315;1259;58709;-66
2024/01/13 08:06:53;;;;;;;6.60;5.20;;;;;;;2.58;100.00;100479.96;180292;1259;43647;-65
2024/01/13 08:10:57;;;;;;;10.30;4.80;;;;;;;2.63;100.00;100483.08;180350;1259;46051;-65
2024/01/13 08:15:00;;;;;;;7.00;5.90;;;;;;;2.65;100.00;100474.38;180216;1259;45313;-65
2024/01/13 08:19:04;;;;;;;5.80;4.10;;;;;;;2.71;100.00;100466.07;180265;1259;43569;-65
2024/01/13 08:23:07;;;;;;;6.80;4.80;;;;;;;2.76;100.00;100462.00;180252;1259;60774;-65
2024/01/13 08:27:11;;;;;;;7.80;5.80;;;;;;;2.78;100.00;100453.67;180350;1259;43910;-65
2024/01/13 08:31:14;;;;;;;6.90;4.30;;;;;;;2.77;100.00;100449.67;180211;1259;43693;-65
2024/01/13 08:35:40;;;;;;;4.40;3.70;;;;;;;2.79;100.00;100437.99;180306;1259;45027;-65
2024/01/13 08:39:43;;;;;;;5.00;3.90;;;;;;;2.82;100.00;100428.77;180370;1259;43629;-65
2024/01/13 08:43:48;;;;;;;7.70;4.80;;;;;;;2.85;100.00;100426.54;180251;1259;57591;-65
2024/01/13 08:48:17;;;;;;;7.00;4.50;;;;;;;2.88;100.00;100422.21;180347;1259;44623;-66
2024/01/13 08:52:34;;;;;;;7.60;5.40;;;;;;;2.90;100.00;100415.77;180401;1259;45128;-64
2024/01/13 08:56:38;;;;;;;10.30;5.20;;;;;;;2.93;100.00;100415.29;180195;1261;46133;-65
2024/01/13 09:00:43;;;;;;;6.50;4.40;;;;;;;2.94;100.00;100413.52;180247;1259;44492;-64
2024/01/13 09:04:52;;;;;;;6.00;4.40;;;;;;;2.96;100.00;100407.27;180316;1259;58574;-66
2024/01/13 09:08:56;;;;;;;5.20;3.50;;;;;;;2.98;100.00;100403.85;180410;1258;45880;-66
2024/01/13 09:12:59;;;;;;;5.40;4.10;;;;;;;2.99;100.00;100406.92;180512;1258;43764;-64
2024/01/13 09:17:09;;;;;;;7.60;3.70;;;;;;;3.01;100.00;100406.34;180314;1259;45878;-65
2024/01/13 09:21:17;;;;;;;3.80;3.40;;;;;;;3.04;100.00;100402.34;180298;1259;43760;-65
2024/01/13 09:25:41;;;;;;;9.80;3.30;;;;;;;3.03;100.00;100409.56;180343;1259;58814;-63
2024/01/13 09:29:45;;;;;;;4.00;3.30;;;;;;;3.04;100.00;100405.84;180281;1260;43932;-63
2024/01/13 09:33:50;;;;;;;4.40;2.60;;;;;;;3.07;100.00;100407.95;180371;1259;43596;-65
2024/01/13 09:37:54;;;;;;;7.80;4.00;;;;;;;3.09;100.00;100410.15;180330;1259;44411;-66
2024/01/13 09:42:03;;;;;;;4.70;3.50;;;;;;;3.09;100.00;100403.31;180330;1259;43605;-64
2024/01/13 09:46:07;;;;;;;6.10;4.50;;;;;;;3.11;100.00;100385.69;180313;1259;60093;-66
2024/01/13 09:50:12;;;;;;;6.70;5.40;;;;;;;3.11;100.00;100379.39;180344;1259;43787;-64
2024/01/13 09:54:25;;;;;;;6.90;4.90;;;;;;;3.12;100.00;100377.73;180399;1258;92634;-88
2024/01/13 09:59:02;;;;;;;7.10;4.80;;;;;;;3.17;100.00;100375.59;179658;1258;44745;-91
2024/01/13 10:03:10;;;;;;;8.60;4.20;;;;;;;3.23;100.00;100366.69;179421;1258;46212;-89
2024/01/13 10:07:15;;;;;;;10.10;3.80;;;;;;;3.25;100.00;100363.43;179724;1259;59473;-90
2024/01/13 10:20:46;;;;;;;6.80;4.60;;;;;;;3.39;99.99;100340.33;142164;1289;44043;-65
2024/01/13 10:24:49;;;;;;;10.10;6.20;;;;;;;3.39;99.86;100333.48;178010;1260;46132;-86
2024/01/13 10:28:55;;;;;;;7.60;4.70;;;;;;;3.37;99.79;100321.48;177769;1261;59563;-87
2024/01/13 10:32:59;;;;;;;6.60;4.70;;;;;;;3.34;99.28;100308.68;177496;1265;46200;-89
2024/01/13 10:37:10;;;;;;;12.80;6.70;;;;;;;3.34;99.27;100304.98;178005;1261;46043;-88
2024/01/13 10:41:26;;;;;;;7.00;5.00;;;;;;;3.32;99.38;100304.39;178431;1261;46008;-88
2024/01/13 10:45:37;;;;;;;6.00;5.20;;;;;;;3.31;99.91;100292.36;177448;1264;46491;-85
2024/01/13 10:49:42;;;;;;;7.60;5.60;;;;;;;3.24;100.00;100286.73;177234;1264;57129;-84
2024/01/13 10:53:48;;;;;;;7.30;5.30;;;;;;;3.25;100.00;100288.41;177220;1266;46162;-87
2024/01/13 10:57:53;;;;;;;7.20;5.40;;;;;;;3.26;100.00;100288.91;177609;1263;46538;-87
2024/01/13 11:01:58;;;;;;;7.00;4.30;;;;;;;3.27;99.15;100279.91;177569;1264;46001;-86
2024/01/13 11:06:02;;;;;;;8.00;5.00;;;;;;;3.26;97.88;100265.61;177356;1264;44062;-86
2024/01/13 11:10:16;;;;;;;5.80;5.10;;;;;;;3.28;96.74;100257.11;177550;1262;58505;-83
2024/01/13 11:14:25;;;;;;;4.10;3.50;;;;;;;3.29;95.90;100249.30;177289;1266;46232;-84
2024/01/13 11:18:35;;;;;;;5.80;4.20;;;;;;;3.30;94.21;100236.14;177003;1263;46140;-84
2024/01/13 11:22:42;;;;;;;4.00;3.20;;;;;;;3.30;93.45;100230.17;177263;1262;46011;-85
2024/01/13 11:26:48;;;;;;;;;;;;;;;3.27;93.03;100220.52;177372;1266;46107;-84
2024/01/13 11:30:52;;;;;;;7.70;4.20;;;;;;;3.17;92.52;100217.52;177005;1264;58053;-83
2024/01/13 11:34:56;;;;;;;7.20;5.00;;;;;;;3.11;92.63;100224.46;176886;1263;46123;-84
2024/01/13 11:39:01;;;;;;;9.00;6.60;;;;;;;2.98;93.32;100221.44;177364;1264;46462;-86
2024/01/13 11:43:20;;;;;;;6.20;5.00;;;;;;;3.12;93.33;100211.13;177329;1263;45919;-86
2024/01/13 11:47:31;;;;;;;5.20;4.50;;;;;;;3.12;92.96;100189.23;177436;1264;46335;-86
2024/01/13 11:51:57;;;;;;;7.40;4.40;;;;;;;3.16;92.08;100174.64;177350;1264;59391;-88
2024/01/13 11:56:02;;;;;;;8.00;4.10;;;;;;;3.24;91.61;100176.49;177808;1263;48580;-86
2024/01/13 12:00:07;;;;;;;6.50;4.40;;;;;;;3.30;90.62;100162.52;177278;1263;46117;-86
2024/01/13 12:04:14;;;;;;;4.20;3.20;;;;;;;3.34;89.81;100153.91;178065;1264;46123;-86
2024/01/13 12:08:19;;;;;;;6.60;3.90;;;;;;;3.35;88.76;100152.95;177060;1263;46126;-88
2024/01/13 12:12:23;;;;;;;5.50;3.30;;;;;;;3.27;87.81;100149.16;177185;1262;58263;-88
2024/01/13 12:16:28;;;;;;;5.00;4.40;;;;;;;3.31;88.59;100152.98;177497;1264;46683;-90
2024/01/13 12:20:32;;;;;;;6.30;4.10;;;;;;;3.15;87.86;100142.94;177692;1263;46076;-88
2024/01/13 12:24:36;;;;;;;3.70;3.40;;;;;;;3.10;88.12;100137.81;177319;1264;46093;-88
2024/01/13 12:28:40;;;;;;;5.00;3.70;;;;;;;3.05;88.59;100127.05;177413;1263;46097;-88
2024/01/13 12:32:46;;;;;;;7.30;6.30;;;;;;;3.08;88.90;100129.13;178013;1263;58514;-87
2024/01/13 12:36:50;;;;;;;4.60;3.40;;;;;;;3.05;88.69;100124.23;177217;1265;46057;-86
2024/01/13 12:40:58;;;;;;;3.60;3.20;;;;;;;2.83;89.12;100111.36;177366;1261;45986;-88
2024/01/13 12:45:02;;;;;;;5.60;4.00;;;;;;;2.88;90.16;100097.25;177067;1263;46126;-88
2024/01/13 12:49:10;;;;;;;6.20;4.00;;;;;;;2.88;91.09;100088.47;177195;1267;46046;-87
2024/01/13 12:53:13;;;;;;;3.50;3.10;;;;;;;2.80;91.29;100077.16;176938;1264;60369;-87
2024/01/13 12:57:17;;;;;;;5.00;3.20;;;;;;;2.82;91.11;100082.48;177682;1262;45992;-87
2024/01/13 13:01:20;;;;;;;6.10;4.10;;;;;;;2.84;90.82;100084.69;177353;1263;45893;-87
2024/01/13 13:05:25;;;;;;;5.80;4.60;;;;;;;2.82;91.25;100088.28;177818;1265;45978;-88
2024/01/13 13:09:29;;;;;;;5.40;4.50;;;;;;;2.85;91.49;100085.00;178103;1262;45989;-89
2024/01/13 13:13:34;;;;;;;6.00;4.20;;;;;;;2.86;91.57;100076.89;177598;1265;57977;-87
2024/01/13 13:17:38;;;;;;;5.70;3.90;;;;;;;2.89;91.57;100068.12;178595;1264;46059;-89
2024/01/13 13:21:43;;;;;;;8.00;5.10;;;;;;;2.87;90.59;100052.12;178307;1264;44685;-88
2024/01/13 13:25:47;;;;;;;9.50;5.90;;;;;;;2.89;89.84;100043.26;177717;1264;46121;-85
2024/01/13 13:29:50;;;;;;;7.10;5.20;;;;;;;2.93;88.90;100038.66;177743;1262;46182;-85
2024/01/13 13:33:54;;;;;;;6.40;5.70;;;;;;;2.92;88.18;100035.89;177724;1263;57953;-85
2024/01/13 13:37:58;;;;;;;7.30;4.70;;;;;;;2.89;88.17;100039.89;177176;1264;46046;-86
2024/01/13 13:42:02;;;;;;;7.90;7.10;;;;;;;2.84;87.97;100030.36;177799;1262;46110;-84
2024/01/13 13:46:05;;;;;;;7.70;6.00;;;;;;;2.79;88.03;100022.27;177354;1264;46063;-84
2024/01/13 13:50:09;;;;;;;6.90;5.30;;;;;;;2.78;88.94;100027.89;177137;1264;46509;-84
2024/01/13 13:54:13;;;;;;;9.00;5.40;;;;;;;2.75;88.95;100021.39;177445;1263;59265;-85
2024/01/13 13:58:16;;;;;;;6.70;4.30;;;;;;;2.69;89.38;100011.72;177379;1265;46110;-86
2024/01/13 14:02:20;;;;;;;7.00;4.40;;;;;;;2.66;90.49;100003.33;177587;1265;44378;-85
2024/01/13 14:06:23;;;;;;;7.80;5.50;;;;;;;2.60;90.40;99988.91;177421;1263;46018;-85
2024/01/13 14:10:27;;;;;;;7.00;5.10;;;;;;;2.54;90.59;99976.11;178277;1264;45995;-85
2024/01/13 14:14:30;;;;;;;7.70;5.00;;;;;;;2.54;91.37;99980.33;177464;1266;59433;-84
2024/01/13 14:18:34;;;;;;;10.90;7.40;;;;;;;2.54;91.73;99979.07;177925;1263;46214;-85
2024/01/13 14:22:38;;;;;;;10.40;6.40;;;;;;;2.56;92.29;99965.48;177188;1266;46246;-85
2024/01/13 14:26:42;;;;;;;8.20;4.20;;;;;;;2.54;92.33;99964.01;177878;1264;46011;-84
2024/01/13 14:30:46;;;;;;;8.90;6.70;;;;;;;2.56;92.75;99964.45;177028;1265;46328;-83
2024/01/13 14:34:50;;;;;;;7.00;4.50;;;;;;;2.56;93.10;99964.45;176938;1264;59581;-84
2024/01/13 14:39:13;;;;;;;8.70;7.70;;;;;;;2.55;92.80;99971.85;177184;1263;46004;-86
2024/01/13 14:43:17;;;;;;;7.00;5.90;;;;;;;2.57;93.00;99970.19;177119;1264;46114;-85
2024/01/13 14:47:21;;;;;;;8.50;5.90;;;;;;;2.56;92.49;99971.98;177384;1263;46090;-86
2024/01/13 14:51:24;;;;;;;6.50;4.60;;;;;;;2.52;92.19;99969.40;177362;1264;46124;-84
2024/01/13 14:55:27;;;;;;;5.40;4.90;;;;;;;2.47;92.61;99970.20;176806;1263;58249;-84
2024/01/13 14:59:31;;;;;;;9.10;6.10;;;;;;;2.44;93.14;99961.40;177298;1263;46440;-85
2024/01/13 15:03:35;;;;;;;7.30;5.00;;;;;;;2.43;93.48;99949.38;177392;1265;44081;-85
2024/01/13 15:07:39;;;;;;;6.90;5.50;;;;;;;2.39;93.15;99950.61;177589;1264;46078;-86
2024/01/13 15:11:43;;;;;;;8.60;7.20;;;;;;;2.38;93.74;99937.21;177563;1264;46020;-86
2024/01/13 15:15:47;;;;;;;7.50;5.30;;;;;;;2.36;93.99;99941.89;177517;1263;59895;-86
2024/01/13 15:19:51;;;;;;;12.40;5.80;;;;;;;2.30;94.52;99948.66;178963;1264;44876;-87
2024/01/13 15:23:54;;;;;;;9.20;6.00;;;;;;;2.30;94.87;99943.09;178234;1265;44560;-86
2024/01/13 15:27:58;;;;;;;9.60;6.30;;;;;;;2.28;95.18;99938.41;177479;1264;46256;-86
2024/01/13 15:32:01;;;;;;;7.00;5.10;;;;;;;2.31;95.43;99925.17;177560;1263;45963;-85
2024/01/13 15:36:05;;;;;;;7.60;5.40;;;;;;;2.29;95.91;99918.29;177754;1263;58454;-86
2024/01/13 15:40:12;;;;;;;8.70;5.80;;;;;;;2.26;96.16;99906.68;177510;1263;46127;-86
2024/01/13 15:44:16;;;;;;;12.50;6.60;;;;;;;2.24;96.16;99897.52;177190;1262;46542;-86
2024/01/13 15:48:20;;;;;;;7.70;5.50;;;;;;;2.25;96.46;99895.02;177021;1267;46007;-86
2024/01/13 15:52:24;;;;;;;9.10;7.70;;;;;;;2.23;96.54;99891.81;177342;1263;46121;-86
2024/01/13 15:56:27;;;;;;;8.30;6.40;;;;;;;2.25;96.30;99884.16;177545;1263;58226;-86
2024/01/13 16:00:31;;;;;;;8.60;7.40;;;;;;;2.27;96.11;99886.52;177152;1263;45976;-86
2024/01/13 16:04:35;;;;;;;13.40;7.90;;;;;;;2.31;95.88;99883.35;178008;1263;44234;-85
2024/01/13 16:08:38;;;;;;;6.70;5.30;;;;;;;2.32;95.78;99871.55;177273;1264;46038;-85
2024/01/13 16:12:43;;;;;;;9.10;7.10;;;;;;;2.32;95.62;99868.55;177448;1265;44777;-84
2024/01/13 16:16:46;;;;;;;12.20;7.80;;;;;;;2.30;95.60;99862.54;177941;1264;58349;-82
2024/01/13 16:20:49;;;;;;;11.10;6.50;;;;;;;2.34;95.55;99852.75;177487;1263;46196;-83
2024/01/13 16:24:53;;;;;;;9.40;7.60;;;;;;;2.33;95.06;99846.65;177469;1264;46152;-84
2024/01/13 16:29:11;;;;;;;9.50;6.90;;;;;;;2.31;94.55;99833.49;177842;1264;46251;-84
2024/01/13 16:33:14;;;;;;;13.10;8.00;;;;;;;2.32;95.12;99824.87;177210;1264;46687;-83
2024/01/13 16:37:17;;;;;;;11.00;7.60;;;;;;;2.23;94.60;99812.89;176944;1267;59448;-84
2024/01/13 16:41:21;;;;;;;12.00;9.10;;;;;;;2.23;94.26;99801.52;177137;1264;46511;-85
2024/01/13 16:45:26;;;;;;;15.20;8.90;;;;;;;2.17;95.18;99793.13;177546;1264;46165;-85
2024/01/13 16:49:30;;;;;;;12.80;7.90;;;;;;;2.16;95.07;99788.08;177092;1264;46353;-85
2024/01/13 16:53:33;;;;;;;11.40;7.90;;;;;;;2.18;95.53;99789.73;177710;1266;45915;-85
2024/01/13 16:57:37;;;;;;;10.60;7.80;;;;;;;2.19;95.70;99788.10;177227;1264;59994;-85
2024/01/13 17:01:42;;;;;;;11.00;8.10;;;;;;;2.20;95.25;99787.35;177402;1265;46093;-86
2024/01/13 17:05:45;;;;;;;12.50;8.50;;;;;;;2.26;94.93;99770.23;177379;1263;46007;-84
2024/01/13 17:09:48;;;;;;;11.50;7.10;;;;;;;2.26;94.81;99761.97;177170;1264;46001;-84
2024/01/13 17:13:51;;;;;;;11.40;7.30;;;;;;;2.28;94.64;99756.31;177764;1264;166710;-85
2024/01/13 17:17:55;;;;;;;11.60;8.40;;;;;;;2.31;94.57;99753.84;178016;1264;58556;-86
2024/01/13 17:22:00;;;;;;;11.60;7.30;;;;;;;2.32;94.15;99747.52;177392;1264;46050;-87
2024/01/13 17:26:04;;;;;;;11.10;8.70;;;;;;;2.32;94.06;99736.08;177958;1265;44277;-85
2024/01/13 17:30:08;;;;;;;10.30;7.50;;;;;;;2.33;93.39;99727.83;178060;1264;46082;-85
2024/01/13 17:34:12;;;;;;;9.10;5.60;;;;;;;2.36;93.35;99733.80;177042;1265;45867;-86
2024/01/13 17:38:17;;;;;;;11.20;7.40;;;;;;;2.41;93.29;99727.92;177328;1266;58241;-85
2024/01/13 17:42:20;;;;;;;9.30;6.30;;;;;;;2.41;93.34;99720.05;177468;1264;46104;-86
2024/01/13 17:46:41;;;;;;;13.50;7.90;;;;;;;2.44;93.47;99712.52;177118;1264;46046;-83
2024/01/13 17:50:44;;;;;;;13.60;7.70;;;;;;;2.48;93.74;99717.05;177390;1265;45040;-82
2024/01/13 17:54:48;;;;;;;11.90;8.30;;;;;;;2.50;93.47;99722.89;177520;1264;45313;-86
2024/01/13 17:58:51;;;;;;;13.30;7.20;;;;;;;2.53;93.45;99703.59;177883;1264;59855;-85
2024/01/13 18:02:55;;;;;;;12.00;6.40;;;;;;;2.52;93.23;99698.21;177956;1266;46110;-86
2024/01/13 18:06:59;;;;;;;8.60;7.20;;;;;;;2.54;93.47;99692.89;177473;1263;45992;-85
2024/01/13 18:11:02;;;;;;;10.00;7.90;;;;;;;2.54;93.60;99693.55;177292;1264;46008;-87
2024/01/13 18:15:06;;;;;;;8.80;6.90;;;;;;;2.55;93.72;99680.77;176872;1263;44788;-84
2024/01/13 18:19:09;;;;;;;12.20;7.80;;;;;;;2.60;93.26;99675.72;177886;1263;58233;-87
2024/01/13 18:23:12;;;;;;;9.60;7.90;;;;;;;2.64;93.45;99668.48;177300;1264;46101;-85
2024/01/13 18:27:16;;;;;;;7.70;5.20;;;;;;;2.70;93.66;99655.53;177967;1266;46091;-85
2024/01/13 18:31:22;;;;;;;12.70;7.60;;;;;;;2.74;93.74;99647.61;177465;1265;45971;-85
2024/01/13 18:35:26;;;;;;;6.60;5.90;;;;;;;2.77;93.50;99637.98;177217;1264;46123;-84
2024/01/13 18:39:29;;;;;;;11.30;6.30;;;;;;;2.78;93.49;99636.19;177417;1262;59255;-83
2024/01/13 18:43:32;;;;;;;13.60;7.90;;;;;;;2.83;93.71;99641.79;177613;1264;46000;-84
2024/01/13 18:47:42;;;;;;;6.80;6.00;;;;;;;2.87;93.72;99633.17;177251;1265;46238;-83
2024/01/13 18:51:45;;;;;;;13.70;7.90;;;;;;;2.89;94.10;99628.67;177660;1266;46011;-83
2024/01/13 18:55:49;;;;;;;11.10;6.90;;;;;;;2.87;94.55;99619.14;177524;1264;46142;-82
2024/01/13 18:59:52;;;;;;;11.80;7.70;;;;;;;2.88;95.43;99617.54;177640;1264;58403;-83
2024/01/13 19:03:55;;;;;;;9.60;6.40;;;;;;;2.88;95.62;99607.40;177351;1264;46057;-84